sensor_id;sensor_type;location;lat;lon;timestamp;pressure;altitude;pressure_sealevel;temperature;humidity
40948;BME280;49382;-25.924;28.194;2023-04-29T00:02:03;85432.31;;;22.60;32.04
40948;BME280;49382;-25.924;28.194;2023-04-29T00:04:28;85431.32;;;22.81;31.84
40948;BME280;49382;-25.924;28.194;2023-04-29T00:06:53;85430.92;;;22.52;31.60
40948;BME280;49382;-25.924;28.194;2023-04-29T00:09:18;85428.92;;;22.83;31.08
40948;BME280;49382;-25.924;28.194;2023-04-29T00:11:44;85427.26;;;22.64;31.02
40948;BME280;49382;-25.924;28.194;2023-04-29T00:14:09;85419.69;;;21.56;33.61
40948;BME280;49382;-25.924;28.194;2023-04-29T00:16:35;85418.24;;;21.63;33.85
40948;BME280;49382;-25.924;28.194;2023-04-29T00:19:00;85412.45;;;22.09;32.55
40948;BME280;49382;-25.924;28.194;2023-04-29T00:21:25;85407.91;;;21.85;33.23
40948;BME280;49382;-25.924;28.194;2023-04-29T00:23:51;85404.80;;;21.40;33.56
40948;BME280;49382;-25.924;28.194;2023-04-29T00:26:16;85407.16;;;21.85;33.08
40948;BME280;49382;-25.924;28.194;2023-04-29T00:28:42;85407.26;;;22.29;31.73
40948;BME280;49382;-25.924;28.194;2023-04-29T00:31:07;85406.91;;;21.45;33.38
40948;BME280;49382;-25.924;28.194;2023-04-29T00:33:32;85410.07;;;21.57;33.39
40948;BME280;49382;-25.924;28.194;2023-04-29T00:35:58;85411.27;;;21.95;33.26
40948;BME280;49382;-25.924;28.194;2023-04-29T00:38:23;85415.49;;;21.37;33.32
40948;BME280;49382;-25.924;28.194;2023-04-29T00:40:49;85415.03;;;21.12;33.60
40948;BME280;49382;-25.924;28.194;2023-04-29T00:43:15;85414.10;;;21.54;33.17
40948;BME280;49382;-25.924;28.194;2023-04-29T00:45:40;85413.61;;;21.31;34.27
40948;BME280;49382;-25.924;28.194;2023-04-29T00:48:06;85414.37;;;21.44;34.14
40948;BME280;49382;-25.924;28.194;2023-04-29T00:50:31;85414.92;;;21.55;33.70
40948;BME280;49382;-25.924;28.194;2023-04-29T00:52:57;85410.83;;;21.90;32.97
40948;BME280;49382;-25.924;28.194;2023-04-29T00:55:23;85409.31;;;21.46;33.88
40948;BME280;49382;-25.924;28.194;2023-04-29T00:57:47;85407.17;;;21.61;33.46
40948;BME280;49382;-25.924;28.194;2023-04-29T01:00:13;85406.60;;;22.45;32.35
40948;BME280;49382;-25.924;28.194;2023-04-29T01:02:39;85410.02;;;22.11;31.56
40948;BME280;49382;-25.924;28.194;2023-04-29T01:05:04;85414.58;;;22.71;30.79
40948;BME280;49382;-25.924;28.194;2023-04-29T01:07:33;85413.75;;;22.69;30.87
40948;BME280;49382;-25.924;28.194;2023-04-29T01:10:02;85412.96;;;23.00;30.54
40948;BME280;49382;-25.924;28.194;2023-04-29T01:12:25;85410.61;;;22.99;30.39
40948;BME280;49382;-25.924;28.194;2023-04-29T01:14:52;85408.56;;;23.00;30.26
40948;BME280;49382;-25.924;28.194;2023-04-29T01:17:17;85407.33;;;22.37;31.34
40948;BME280;49382;-25.924;28.194;2023-04-29T01:19:45;85403.36;;;21.74;32.68
40948;BME280;49382;-25.924;28.194;2023-04-29T01:22:01;85402.09;;;21.73;33.03
40948;BME280;49382;-25.924;28.194;2023-04-29T01:24:27;85403.75;;;21.51;33.21
40948;BME280;49382;-25.924;28.194;2023-04-29T01:26:56;85403.41;;;21.44;33.53
40948;BME280;49382;-25.924;28.194;2023-04-29T01:29:25;85402.07;;;21.13;34.51
40948;BME280;49382;-25.924;28.194;2023-04-29T01:31:50;85400.58;;;21.61;33.70
40948;BME280;49382;-25.924;28.194;2023-04-29T01:34:11;85395.46;;;21.35;33.71
40948;BME280;49382;-25.924;28.194;2023-04-29T01:36:43;85392.44;;;22.21;32.75
40948;BME280;49382;-25.924;28.194;2023-04-29T01:39:06;85392.17;;;21.86;33.36
40948;BME280;49382;-25.924;28.194;2023-04-29T01:41:33;85393.03;;;21.35;33.64
40948;BME280;49382;-25.924;28.194;2023-04-29T01:43:52;85389.82;;;20.91;34.43
40948;BME280;49382;-25.924;28.194;2023-04-29T01:46:17;85390.54;;;21.71;34.34
40948;BME280;49382;-25.924;28.194;2023-04-29T01:48:41;85390.21;;;20.56;35.35
40948;BME280;49382;-25.924;28.194;2023-04-29T01:51:07;85394.96;;;21.17;34.80
40948;BME280;49382;-25.924;28.194;2023-04-29T01:53:32;85396.35;;;21.14;34.91
40948;BME280;49382;-25.924;28.194;2023-04-29T01:55:58;85394.48;;;21.06;35.16
40948;BME280;49382;-25.924;28.194;2023-04-29T01:58:23;85390.94;;;21.13;34.53
40948;BME280;49382;-25.924;28.194;2023-04-29T02:00:48;85393.69;;;21.31;35.09
40948;BME280;49382;-25.924;28.194;2023-04-29T02:03:13;85395.72;;;21.41;34.86
40948;BME280;49382;-25.924;28.194;2023-04-29T02:05:39;85399.81;;;21.27;36.26
40948;BME280;49382;-25.924;28.194;2023-04-29T02:08:04;85400.53;;;21.68;35.43
40948;BME280;49382;-25.924;28.194;2023-04-29T02:10:29;85401.72;;;22.29;34.78
40948;BME280;49382;-25.924;28.194;2023-04-29T02:12:55;85403.97;;;22.34;34.38
40948;BME280;49382;-25.924;28.194;2023-04-29T02:15:20;85403.24;;;22.40;33.81
40948;BME280;49382;-25.924;28.194;2023-04-29T02:17:45;85404.17;;;22.10;34.15
40948;BME280;49382;-25.924;28.194;2023-04-29T02:20:11;85408.31;;;22.26;33.89
40948;BME280;49382;-25.924;28.194;2023-04-29T02:22:36;85409.84;;;22.20;34.09
40948;BME280;49382;-25.924;28.194;2023-04-29T02:25:02;85410.37;;;21.70;34.58
40948;BME280;49382;-25.924;28.194;2023-04-29T02:27:27;85408.62;;;21.62;34.57
40948;BME280;49382;-25.924;28.194;2023-04-29T02:29:52;85406.93;;;21.17;35.21
40948;BME280;49382;-25.924;28.194;2023-04-29T02:32:18;85408.33;;;21.30;34.57
40948;BME280;49382;-25.924;28.194;2023-04-29T02:34:43;85408.39;;;21.39;35.43
40948;BME280;49382;-25.924;28.194;2023-04-29T02:37:08;85410.86;;;20.78;35.84
40948;BME280;49382;-25.924;28.194;2023-04-29T02:39:34;85416.65;;;21.38;35.58
40948;BME280;49382;-25.924;28.194;2023-04-29T02:42:00;85426.85;;;21.25;35.65
40948;BME280;49382;-25.924;28.194;2023-04-29T02:44:25;85432.03;;;21.54;35.56
40948;BME280;49382;-25.924;28.194;2023-04-29T02:46:51;85432.46;;;21.43;36.20
40948;BME280;49382;-25.924;28.194;2023-04-29T02:49:16;85433.08;;;21.56;36.39
40948;BME280;49382;-25.924;28.194;2023-04-29T02:51:41;85433.62;;;22.02;36.75
40948;BME280;49382;-25.924;28.194;2023-04-29T02:54:07;85437.35;;;21.39;37.58
40948;BME280;49382;-25.924;28.194;2023-04-29T02:56:32;85446.02;;;21.96;37.15
40948;BME280;49382;-25.924;28.194;2023-04-29T02:58:58;85449.51;;;21.86;37.64
40948;BME280;49382;-25.924;28.194;2023-04-29T03:01:23;85451.34;;;22.35;36.71
40948;BME280;49382;-25.924;28.194;2023-04-29T03:03:48;85452.67;;;21.51;37.09
40948;BME280;49382;-25.924;28.194;2023-04-29T03:06:13;85452.67;;;22.45;37.03
40948;BME280;49382;-25.924;28.194;2023-04-29T03:08:38;85449.91;;;22.18;37.36
40948;BME280;49382;-25.924;28.194;2023-04-29T03:11:04;85448.04;;;22.27;37.63
40948;BME280;49382;-25.924;28.194;2023-04-29T03:13:29;85442.86;;;22.13;36.86
40948;BME280;49382;-25.924;28.194;2023-04-29T03:15:55;85444.47;;;22.63;36.76
40948;BME280;49382;-25.924;28.194;2023-04-29T03:18:20;85442.43;;;22.11;37.95
40948;BME280;49382;-25.924;28.194;2023-04-29T03:20:45;85440.42;;;22.42;36.54
40948;BME280;49382;-25.924;28.194;2023-04-29T03:23:10;85445.44;;;21.98;37.38
40948;BME280;49382;-25.924;28.194;2023-04-29T03:25:36;85446.95;;;21.50;37.30
40948;BME280;49382;-25.924;28.194;2023-04-29T03:28:02;85452.02;;;21.35;37.69
40948;BME280;49382;-25.924;28.194;2023-04-29T03:30:27;85458.97;;;22.43;37.34
40948;BME280;49382;-25.924;28.194;2023-04-29T03:32:52;85461.82;;;22.26;37.54
40948;BME280;49382;-25.924;28.194;2023-04-29T03:35:17;85458.55;;;22.55;37.19
40948;BME280;49382;-25.924;28.194;2023-04-29T03:37:43;85455.87;;;22.03;37.09
40948;BME280;49382;-25.924;28.194;2023-04-29T03:40:09;85450.15;;;22.20;36.85
40948;BME280;49382;-25.924;28.194;2023-04-29T03:42:33;85453.98;;;22.18;36.27
40948;BME280;49382;-25.924;28.194;2023-04-29T03:44:59;85459.16;;;22.30;35.52
40948;BME280;49382;-25.924;28.194;2023-04-29T03:47:24;85459.03;;;22.15;35.07
40948;BME280;49382;-25.924;28.194;2023-04-29T03:49:50;85461.04;;;22.36;35.29
40948;BME280;49382;-25.924;28.194;2023-04-29T03:52:15;85464.26;;;21.98;35.74
40948;BME280;49382;-25.924;28.194;2023-04-29T03:54:41;85469.29;;;22.12;35.76
40948;BME280;49382;-25.924;28.194;2023-04-29T03:57:06;85468.05;;;21.31;36.47
40948;BME280;49382;-25.924;28.194;2023-04-29T03:59:31;85469.26;;;22.13;34.49
40948;BME280;49382;-25.924;28.194;2023-04-29T04:01:57;85465.23;;;22.07;34.43
40948;BME280;49382;-25.924;28.194;2023-04-29T04:04:22;85464.74;;;22.21;33.46
40948;BME280;49382;-25.924;28.194;2023-04-29T04:06:48;85464.92;;;22.19;33.17
40948;BME280;49382;-25.924;28.194;2023-04-29T04:09:13;85467.49;;;22.23;32.84
40948;BME280;49382;-25.924;28.194;2023-04-29T04:11:39;85470.93;;;22.33;32.94
40948;BME280;49382;-25.924;28.194;2023-04-29T04:14:04;85479.23;;;22.31;32.85
40948;BME280;49382;-25.924;28.194;2023-04-29T04:16:29;85487.38;;;22.11;32.86
40948;BME280;49382;-25.924;28.194;2023-04-29T04:18:54;85492.04;;;21.93;33.18
40948;BME280;49382;-25.924;28.194;2023-04-29T04:21:20;85495.06;;;22.37;32.30
40948;BME280;49382;-25.924;28.194;2023-04-29T04:23:45;85494.17;;;21.54;32.95
40948;BME280;49382;-25.924;28.194;2023-04-29T04:26:10;85497.38;;;21.93;32.48
40948;BME280;49382;-25.924;28.194;2023-04-29T04:28:36;85498.16;;;22.15;32.41
40948;BME280;49382;-25.924;28.194;2023-04-29T04:31:01;85494.75;;;22.19;32.25
40948;BME280;49382;-25.924;28.194;2023-04-29T04:33:26;85490.09;;;21.80;32.59
40948;BME280;49382;-25.924;28.194;2023-04-29T04:35:51;85491.03;;;21.81;32.22
40948;BME280;49382;-25.924;28.194;2023-04-29T04:38:16;85496.11;;;22.39;31.84
40948;BME280;49382;-25.924;28.194;2023-04-29T04:40:41;85500.78;;;22.41;31.81
40948;BME280;49382;-25.924;28.194;2023-04-29T04:43:06;85504.41;;;22.19;31.69
40948;BME280;49382;-25.924;28.194;2023-04-29T04:45:31;85506.74;;;21.54;32.58
40948;BME280;49382;-25.924;28.194;2023-04-29T04:47:56;85512.42;;;22.06;32.24
40948;BME280;49382;-25.924;28.194;2023-04-29T04:50:22;85518.36;;;22.27;31.84
40948;BME280;49382;-25.924;28.194;2023-04-29T04:52:48;85520.51;;;21.96;32.33
40948;BME280;49382;-25.924;28.194;2023-04-29T04:55:13;85522.58;;;21.98;31.89
40948;BME280;49382;-25.924;28.194;2023-04-29T04:57:39;85517.57;;;21.91;32.11
40948;BME280;49382;-25.924;28.194;2023-04-29T05:00:06;85520.93;;;22.04;31.92
40948;BME280;49382;-25.924;28.194;2023-04-29T05:02:31;85521.92;;;20.95;33.06
40948;BME280;49382;-25.924;28.194;2023-04-29T05:04:57;85526.24;;;22.42;31.92
40948;BME280;49382;-25.924;28.194;2023-04-29T05:07:23;85526.80;;;22.42;31.95
40948;BME280;49382;-25.924;28.194;2023-04-29T05:09:48;85526.03;;;22.57;31.45
40948;BME280;49382;-25.924;28.194;2023-04-29T05:12:14;85530.30;;;22.67;31.40
40948;BME280;49382;-25.924;28.194;2023-04-29T05:14:40;85534.38;;;22.78;31.30
40948;BME280;49382;-25.924;28.194;2023-04-29T05:17:06;85533.07;;;22.30;31.56
40948;BME280;49382;-25.924;28.194;2023-04-29T05:19:32;85531.50;;;22.80;31.02
40948;BME280;49382;-25.924;28.194;2023-04-29T05:21:58;85529.14;;;22.29;31.88
40948;BME280;49382;-25.924;28.194;2023-04-29T05:24:24;85530.26;;;22.47;31.75
40948;BME280;49382;-25.924;28.194;2023-04-29T05:26:49;85533.06;;;23.07;31.08
40948;BME280;49382;-25.924;28.194;2023-04-29T05:29:15;85536.95;;;23.24;31.01
40948;BME280;49382;-25.924;28.194;2023-04-29T05:31:41;85540.93;;;23.00;31.10
40948;BME280;49382;-25.924;28.194;2023-04-29T05:34:07;85541.01;;;23.19;31.28
40948;BME280;49382;-25.924;28.194;2023-04-29T05:36:33;85541.43;;;23.21;30.93
40948;BME280;49382;-25.924;28.194;2023-04-29T05:38:59;85542.37;;;23.35;31.14
40948;BME280;49382;-25.924;28.194;2023-04-29T05:41:24;85545.56;;;23.31;30.25
40948;BME280;49382;-25.924;28.194;2023-04-29T05:43:50;85543.59;;;23.85;30.69
40948;BME280;49382;-25.924;28.194;2023-04-29T05:46:16;85545.93;;;23.64;30.53
40948;BME280;49382;-25.924;28.194;2023-04-29T05:48:42;85544.25;;;24.13;30.06
40948;BME280;49382;-25.924;28.194;2023-04-29T05:51:08;85544.48;;;24.03;30.30
40948;BME280;49382;-25.924;28.194;2023-04-29T05:53:33;85544.62;;;24.47;29.67
40948;BME280;49382;-25.924;28.194;2023-04-29T05:55:59;85548.47;;;24.45;29.67
40948;BME280;49382;-25.924;28.194;2023-04-29T05:58:25;85553.22;;;24.78;29.47
40948;BME280;49382;-25.924;28.194;2023-04-29T06:00:51;85551.70;;;24.83;29.75
40948;BME280;49382;-25.924;28.194;2023-04-29T06:03:17;85551.26;;;25.25;29.21
40948;BME280;49382;-25.924;28.194;2023-04-29T06:05:43;85551.54;;;24.61;28.53
40948;BME280;49382;-25.924;28.194;2023-04-29T06:08:08;85550.61;;;25.11;28.57
40948;BME280;49382;-25.924;28.194;2023-04-29T06:10:34;85548.97;;;25.09;28.87
40948;BME280;49382;-25.924;28.194;2023-04-29T06:13:00;85545.49;;;24.59;29.11
40948;BME280;49382;-25.924;28.194;2023-04-29T06:15:26;85541.30;;;25.79;27.94
40948;BME280;49382;-25.924;28.194;2023-04-29T06:17:51;85547.27;;;25.43;28.94
40948;BME280;49382;-25.924;28.194;2023-04-29T06:20:17;85550.84;;;25.80;29.24
40948;BME280;49382;-25.924;28.194;2023-04-29T06:22:43;85548.76;;;25.82;28.78
40948;BME280;49382;-25.924;28.194;2023-04-29T06:25:09;85548.78;;;26.08;28.16
40948;BME280;49382;-25.924;28.194;2023-04-29T06:27:34;85548.17;;;26.09;28.45
40948;BME280;49382;-25.924;28.194;2023-04-29T06:30:00;85547.44;;;25.86;28.24
40948;BME280;49382;-25.924;28.194;2023-04-29T06:32:26;85550.19;;;26.48;27.33
40948;BME280;49382;-25.924;28.194;2023-04-29T06:34:52;85550.71;;;26.27;27.77
40948;BME280;49382;-25.924;28.194;2023-04-29T06:37:18;85548.65;;;26.27;28.80
40948;BME280;49382;-25.924;28.194;2023-04-29T06:39:43;85552.31;;;27.17;27.18
40948;BME280;49382;-25.924;28.194;2023-04-29T06:42:09;85549.42;;;27.12;27.70
40948;BME280;49382;-25.924;28.194;2023-04-29T06:44:35;85549.92;;;26.65;27.66
40948;BME280;49382;-25.924;28.194;2023-04-29T06:47:01;85549.41;;;26.98;27.36
40948;BME280;49382;-25.924;28.194;2023-04-29T06:49:27;85553.57;;;27.20;27.28
40948;BME280;49382;-25.924;28.194;2023-04-29T06:51:53;85555.15;;;27.21;26.37
40948;BME280;49382;-25.924;28.194;2023-04-29T06:54:19;85552.20;;;27.20;27.20
40948;BME280;49382;-25.924;28.194;2023-04-29T06:56:44;85554.39;;;27.04;26.99
40948;BME280;49382;-25.924;28.194;2023-04-29T06:59:10;85556.46;;;26.81;26.87
40948;BME280;49382;-25.924;28.194;2023-04-29T07:01:36;85554.95;;;27.23;26.91
40948;BME280;49382;-25.924;28.194;2023-04-29T07:04:02;85553.68;;;26.80;29.19
40948;BME280;49382;-25.924;28.194;2023-04-29T07:06:27;85550.52;;;27.11;27.19
40948;BME280;49382;-25.924;28.194;2023-04-29T07:08:53;85547.51;;;26.86;27.59
40948;BME280;49382;-25.924;28.194;2023-04-29T07:11:19;85546.93;;;27.11;27.61
40948;BME280;49382;-25.924;28.194;2023-04-29T07:13:44;85545.54;;;27.27;28.11
40948;BME280;49382;-25.924;28.194;2023-04-29T07:16:15;85544.26;;;27.97;27.50
40948;BME280;49382;-25.924;28.194;2023-04-29T07:18:36;85539.93;;;28.38;26.77
40948;BME280;49382;-25.924;28.194;2023-04-29T07:21:02;85530.57;;;28.33;26.25
40948;BME280;49382;-25.924;28.194;2023-04-29T07:23:28;85530.09;;;28.53;25.59
40948;BME280;49382;-25.924;28.194;2023-04-29T07:25:53;85539.33;;;28.80;25.61
40948;BME280;49382;-25.924;28.194;2023-04-29T07:28:18;85538.55;;;28.75;25.63
40948;BME280;49382;-25.924;28.194;2023-04-29T07:30:44;85537.70;;;29.03;25.66
40948;BME280;49382;-25.924;28.194;2023-04-29T07:33:10;85539.81;;;28.90;27.07
40948;BME280;49382;-25.924;28.194;2023-04-29T07:35:36;85537.60;;;29.73;26.67
40948;BME280;49382;-25.924;28.194;2023-04-29T07:38:02;85532.64;;;30.26;25.26
40948;BME280;49382;-25.924;28.194;2023-04-29T07:40:27;85538.69;;;30.13;25.23
40948;BME280;49382;-25.924;28.194;2023-04-29T07:42:53;85536.46;;;29.40;25.65
40948;BME280;49382;-25.924;28.194;2023-04-29T07:45:19;85538.68;;;29.70;27.31
40948;BME280;49382;-25.924;28.194;2023-04-29T07:47:44;85536.92;;;29.68;26.22
40948;BME280;49382;-25.924;28.194;2023-04-29T07:50:10;85534.20;;;29.58;26.23
40948;BME280;49382;-25.924;28.194;2023-04-29T07:52:35;85535.01;;;30.41;25.68
40948;BME280;49382;-25.924;28.194;2023-04-29T07:55:02;85529.47;;;32.86;23.46
40948;BME280;49382;-25.924;28.194;2023-04-29T07:57:27;85535.39;;;37.31;19.52
40948;BME280;49382;-25.924;28.194;2023-04-29T07:59:52;85533.49;;;40.66;17.93
40948;BME280;49382;-25.924;28.194;2023-04-29T08:02:17;85533.96;;;42.87;15.22
40948;BME280;49382;-25.924;28.194;2023-04-29T08:04:43;85530.43;;;42.49;15.59
40948;BME280;49382;-25.924;28.194;2023-04-29T08:07:09;85531.12;;;45.99;12.99
40948;BME280;49382;-25.924;28.194;2023-04-29T08:09:34;85530.83;;;48.79;11.36
40948;BME280;49382;-25.924;28.194;2023-04-29T08:12:00;85524.28;;;49.08;10.59
40948;BME280;49382;-25.924;28.194;2023-04-29T08:14:26;85526.87;;;49.85;9.55
40948;BME280;49382;-25.924;28.194;2023-04-29T08:16:52;85521.89;;;49.16;9.28
40948;BME280;49382;-25.924;28.194;2023-04-29T08:19:17;85523.78;;;51.36;8.53
40948;BME280;49382;-25.924;28.194;2023-04-29T08:21:43;85520.60;;;51.90;7.44
40948;BME280;49382;-25.924;28.194;2023-04-29T08:24:09;85515.50;;;50.38;8.26
40948;BME280;49382;-25.924;28.194;2023-04-29T08:26:34;85513.68;;;50.87;7.81
40948;BME280;49382;-25.924;28.194;2023-04-29T08:28:59;85511.00;;;52.17;8.17
40948;BME280;49382;-25.924;28.194;2023-04-29T08:31:25;85508.00;;;52.81;7.06
40948;BME280;49382;-25.924;28.194;2023-04-29T08:33:51;85505.38;;;54.45;7.06
40948;BME280;49382;-25.924;28.194;2023-04-29T08:36:16;85509.72;;;53.70;6.86
40948;BME280;49382;-25.924;28.194;2023-04-29T08:38:42;85513.17;;;54.37;6.36
40948;BME280;49382;-25.924;28.194;2023-04-29T08:41:08;85514.04;;;52.20;6.93
40948;BME280;49382;-25.924;28.194;2023-04-29T08:43:34;85511.31;;;54.66;6.08
40948;BME280;49382;-25.924;28.194;2023-04-29T08:45:59;85513.58;;;56.32;5.65
40948;BME280;49382;-25.924;28.194;2023-04-29T08:48:25;85505.95;;;53.59;6.96
40948;BME280;49382;-25.924;28.194;2023-04-29T08:50:50;85497.08;;;53.61;6.81
40948;BME280;49382;-25.924;28.194;2023-04-29T08:53:15;85467.72;;;43.34;10.71
40948;BME280;49382;-25.924;28.194;2023-04-29T08:55:42;85457.40;;;40.17;14.30
40948;BME280;49382;-25.924;28.194;2023-04-29T08:58:07;85455.36;;;37.89;15.73
40948;BME280;49382;-25.924;28.194;2023-04-29T09:00:34;85448.80;;;37.34;16.76
40948;BME280;49382;-25.924;28.194;2023-04-29T09:02:58;85443.90;;;36.27;17.95
40948;BME280;49382;-25.924;28.194;2023-04-29T09:05:23;85438.72;;;33.01;21.39
40948;BME280;49382;-25.924;28.194;2023-04-29T09:07:50;85438.72;;;33.54;21.44
40948;BME280;49382;-25.924;28.194;2023-04-29T09:10:14;85436.11;;;34.22;20.86
40948;BME280;49382;-25.924;28.194;2023-04-29T09:12:40;85434.51;;;33.91;21.76
40948;BME280;49382;-25.924;28.194;2023-04-29T09:15:06;85432.35;;;33.34;22.69
40948;BME280;49382;-25.924;28.194;2023-04-29T09:17:40;85427.74;;;32.11;23.12
40948;BME280;49382;-25.924;28.194;2023-04-29T09:19:57;85424.81;;;30.92;23.16
40948;BME280;49382;-25.924;28.194;2023-04-29T09:22:22;85424.55;;;32.73;21.88
40948;BME280;49382;-25.924;28.194;2023-04-29T09:24:47;85420.18;;;31.42;23.40
40948;BME280;49382;-25.924;28.194;2023-04-29T09:29:39;85412.64;;;32.23;23.41
40948;BME280;49382;-25.924;28.194;2023-04-29T09:34:32;85408.95;;;32.39;23.33
40948;BME280;49382;-25.924;28.194;2023-04-29T09:36:56;85402.63;;;31.96;23.99
40948;BME280;49382;-25.924;28.194;2023-04-29T09:39:22;85398.03;;;32.07;23.88
40948;BME280;49382;-25.924;28.194;2023-04-29T09:44:12;85389.29;;;31.02;24.36
40948;BME280;49382;-25.924;28.194;2023-04-29T09:46:37;85387.87;;;30.89;24.75
40948;BME280;49382;-25.924;28.194;2023-04-29T09:49:03;85382.98;;;30.70;25.46
40948;BME280;49382;-25.924;28.194;2023-04-29T09:51:28;85382.43;;;31.62;24.17
40948;BME280;49382;-25.924;28.194;2023-04-29T09:53:54;85376.52;;;31.47;24.39
40948;BME280;49382;-25.924;28.194;2023-04-29T09:56:20;85373.18;;;31.13;25.33
40948;BME280;49382;-25.924;28.194;2023-04-29T09:58:45;85369.94;;;31.72;24.92
40948;BME280;49382;-25.924;28.194;2023-04-29T10:01:11;85368.24;;;31.91;23.92
40948;BME280;49382;-25.924;28.194;2023-04-29T10:03:37;85365.08;;;31.90;24.23
40948;BME280;49382;-25.924;28.194;2023-04-29T10:06:04;85362.99;;;31.75;24.15
40948;BME280;49382;-25.924;28.194;2023-04-29T10:08:29;85363.30;;;31.75;23.73
40948;BME280;49382;-25.924;28.194;2023-04-29T10:10:53;85357.40;;;31.66;24.06
40948;BME280;49382;-25.924;28.194;2023-04-29T10:13:19;85359.44;;;31.89;25.53
40948;BME280;49382;-25.924;28.194;2023-04-29T10:15:51;85351.58;;;31.41;25.30
40948;BME280;49382;-25.924;28.194;2023-04-29T10:18:17;85348.98;;;32.33;24.51
40948;BME280;49382;-25.924;28.194;2023-04-29T10:20:36;85346.12;;;31.27;25.47
40948;BME280;49382;-25.924;28.194;2023-04-29T10:23:02;85344.63;;;31.77;24.80
40948;BME280;49382;-25.924;28.194;2023-04-29T10:25:27;85334.86;;;29.83;26.04
40948;BME280;49382;-25.924;28.194;2023-04-29T10:27:52;85330.86;;;30.94;23.71
40948;BME280;49382;-25.924;28.194;2023-04-29T10:30:19;85329.24;;;31.05;24.38
40948;BME280;49382;-25.924;28.194;2023-04-29T10:32:45;85327.62;;;31.24;24.77
40948;BME280;49382;-25.924;28.194;2023-04-29T10:35:11;85325.72;;;31.50;24.40
40948;BME280;49382;-25.924;28.194;2023-04-29T10:37:35;85318.45;;;31.58;24.73
40948;BME280;49382;-25.924;28.194;2023-04-29T10:40:09;85312.52;;;31.34;24.74
40948;BME280;49382;-25.924;28.194;2023-04-29T10:42:33;85311.48;;;31.38;24.98
40948;BME280;49382;-25.924;28.194;2023-04-29T10:47:19;85309.47;;;31.15;25.22
40948;BME280;49382;-25.924;28.194;2023-04-29T10:52:15;85298.86;;;31.15;25.37
40948;BME280;49382;-25.924;28.194;2023-04-29T10:54:34;85298.68;;;31.22;25.27
40948;BME280;49382;-25.924;28.194;2023-04-29T10:57:00;85295.65;;;31.13;25.06
40948;BME280;49382;-25.924;28.194;2023-04-29T11:01:52;85289.42;;;30.71;25.14
40948;BME280;49382;-25.924;28.194;2023-04-29T11:04:18;85288.80;;;30.54;25.46
40948;BME280;49382;-25.924;28.194;2023-04-29T11:06:46;85289.16;;;31.39;24.27
40948;BME280;49382;-25.924;28.194;2023-04-29T11:09:11;85283.14;;;30.00;25.68
40948;BME280;49382;-25.924;28.194;2023-04-29T11:11:41;85280.29;;;30.52;25.30
40948;BME280;49382;-25.924;28.194;2023-04-29T11:14:02;85276.43;;;30.91;24.86
40948;BME280;49382;-25.924;28.194;2023-04-29T11:16:26;85277.50;;;30.39;25.38
40948;BME280;49382;-25.924;28.194;2023-04-29T11:21:17;85266.23;;;30.84;25.33
40948;BME280;49382;-25.924;28.194;2023-04-29T11:23:43;85265.49;;;30.21;25.75
40948;BME280;49382;-25.924;28.194;2023-04-29T11:26:08;85261.23;;;30.51;24.99
40948;BME280;49382;-25.924;28.194;2023-04-29T11:28:35;85259.22;;;30.43;25.22
40948;BME280;49382;-25.924;28.194;2023-04-29T11:30:59;85253.38;;;30.63;24.58
40948;BME280;49382;-25.924;28.194;2023-04-29T11:33:25;85249.17;;;30.26;24.43
40948;BME280;49382;-25.924;28.194;2023-04-29T11:35:50;85247.41;;;30.43;24.68
40948;BME280;49382;-25.924;28.194;2023-04-29T11:38:16;85247.16;;;30.56;24.71
40948;BME280;49382;-25.924;28.194;2023-04-29T11:40:42;85247.21;;;30.76;25.06
40948;BME280;49382;-25.924;28.194;2023-04-29T11:43:06;85241.05;;;29.74;25.45
40948;BME280;49382;-25.924;28.194;2023-04-29T11:45:35;85236.60;;;30.67;24.42
40948;BME280;49382;-25.924;28.194;2023-04-29T11:47:57;85229.15;;;30.15;24.67
40948;BME280;49382;-25.924;28.194;2023-04-29T11:50:23;85229.15;;;30.39;24.28
40948;BME280;49382;-25.924;28.194;2023-04-29T11:52:49;85230.61;;;30.45;24.03
40948;BME280;49382;-25.924;28.194;2023-04-29T11:55:14;85230.35;;;29.95;23.72
40948;BME280;49382;-25.924;28.194;2023-04-29T11:57:40;85227.70;;;30.34;23.43
40948;BME280;49382;-25.924;28.194;2023-04-29T12:00:08;85221.58;;;29.79;23.55
40948;BME280;49382;-25.924;28.194;2023-04-29T12:02:32;85216.74;;;30.12;24.08
40948;BME280;49382;-25.924;28.194;2023-04-29T12:04:58;85215.76;;;30.37;23.76
40948;BME280;49382;-25.924;28.194;2023-04-29T12:07:23;85209.37;;;30.28;23.55
40948;BME280;49382;-25.924;28.194;2023-04-29T12:09:48;85204.53;;;30.30;23.61
40948;BME280;49382;-25.924;28.194;2023-04-29T12:12:14;85205.47;;;29.91;23.74
40948;BME280;49382;-25.924;28.194;2023-04-29T12:14:40;85205.79;;;29.80;23.06
40948;BME280;49382;-25.924;28.194;2023-04-29T12:17:05;85204.24;;;30.23;22.08
40948;BME280;49382;-25.924;28.194;2023-04-29T12:19:30;85202.04;;;28.75;23.84
40948;BME280;49382;-25.924;28.194;2023-04-29T12:21:58;85206.66;;;29.75;24.74
40948;BME280;49382;-25.924;28.194;2023-04-29T12:24:21;85204.44;;;28.86;25.02
40948;BME280;49382;-25.924;28.194;2023-04-29T12:26:46;85205.83;;;29.73;23.89
40948;BME280;49382;-25.924;28.194;2023-04-29T12:29:12;85205.96;;;29.81;23.51
40948;BME280;49382;-25.924;28.194;2023-04-29T12:31:37;85202.13;;;29.82;23.16
40948;BME280;49382;-25.924;28.194;2023-04-29T12:34:03;85195.87;;;29.48;23.49
40948;BME280;49382;-25.924;28.194;2023-04-29T12:36:28;85195.93;;;29.72;23.93
40948;BME280;49382;-25.924;28.194;2023-04-29T12:38:54;85193.23;;;29.77;24.22
40948;BME280;49382;-25.924;28.194;2023-04-29T12:41:19;85186.04;;;30.02;23.89
40948;BME280;49382;-25.924;28.194;2023-04-29T12:43:44;85179.48;;;29.65;24.19
40948;BME280;49382;-25.924;28.194;2023-04-29T12:46:10;85176.35;;;29.33;24.34
40948;BME280;49382;-25.924;28.194;2023-04-29T12:48:36;85171.90;;;29.95;24.04